CheckWX is a tool to help pilots better visualize weather data.  It is not intended as a substitute for an official pre-flight weather briefing.

07:08:08 UTC

PANN METAR
Nenana Municipal Airport
Nenana, Alaska, USA
Current

15 mins ago

PANN 200653Z AUTO 00000KT 10SM OVC095 M02/M06 A2960 RMK AO2 SLP033 T10221056 TSNO
Observed
Oct-20 @ 06:53 UTC
Visibility
10 SM
Flight Rules
VFR
Cloud Levels
  • Overcast at 9,500' AGL
Temperature
-2°C / 28°F
Dewpoint
-6°C / 21°F
Humidity
74%
Altimeter
29.6" Hg
Pressure
1002.42 hPa
Previous

1 hour ago

PANN 200553Z AUTO 00000KT 10SM OVC095 M01/M06 A2959 RMK AO2 SLP029 T10111056 10017 21022 53008 TSNO
Observed
Oct-20 @ 05:53 UTC
Visibility
10 SM
Flight Rules
VFR
Cloud Levels
  • Overcast at 9,500' AGL
Temperature
-1°C / 30°F
Dewpoint
-6°C / 21°F
Humidity
69%
Altimeter
29.59" Hg
Pressure
1002.02 hPa
Previous

2 hours ago

PANN 200453Z AUTO 00000KT 10SM SCT075 OVC095 M02/M06 A2958 RMK AO2 SLP026 T10221061 TSNO
Observed
Oct-20 @ 04:53 UTC
Visibility
10 SM
Flight Rules
VFR
Cloud Levels
  • Scattered at 7,500' AGL
  • Overcast at 9,500' AGL
Temperature
-2°C / 28°F
Dewpoint
-6°C / 21°F
Humidity
74%
Altimeter
29.58" Hg
Pressure
1001.72 hPa